sensor_id;sensor_type;location;lat;lon;timestamp;P1;durP1;ratioP1;P2;durP2;ratioP2
64022;SDS011;50264;52.088;5.296;2022-07-19T00:00:34;39.6;;;11.7;;
64022;SDS011;50264;52.088;5.296;2022-07-19T00:02:21;31.4;;;10.9;;
64022;SDS011;50264;52.088;5.296;2022-07-19T00:04:08;32.21;;;10.3;;
64022;SDS011;50264;52.088;5.296;2022-07-19T00:05:56;27.3;;;9.31;;
64022;SDS011;50264;52.088;5.296;2022-07-19T00:07:43;23.5;;;8.31;;
64022;SDS011;50264;52.088;5.296;2022-07-19T00:11:17;22.8;;;8.31;;
64022;SDS011;50264;52.088;5.296;2022-07-19T00:13:04;23.5;;;7.5;;
64022;SDS011;50264;52.088;5.296;2022-07-19T00:14:51;31.2;;;9.21;;
64022;SDS011;50264;52.088;5.296;2022-07-19T00:16:38;31.1;;;9.71;;
64022;SDS011;50264;52.088;5.296;2022-07-19T00:18:25;32.3;;;9.71;;
64022;SDS011;50264;52.088;5.296;2022-07-19T00:20:12;31.5;;;10.0;;
64022;SDS011;50264;52.088;5.296;2022-07-19T00:23:47;31.3;;;8.81;;
64022;SDS011;50264;52.088;5.296;2022-07-19T00:25:34;25.8;;;9.4;;
64022;SDS011;50264;52.088;5.296;2022-07-19T00:27:20;23.3;;;9.0;;
64022;SDS011;50264;52.088;5.296;2022-07-19T00:29:06;29.9;;;9.1;;
64022;SDS011;50264;52.088;5.296;2022-07-19T00:30:53;19.0;;;8.71;;
64022;SDS011;50264;52.088;5.296;2022-07-19T00:32:40;23.5;;;7.6;;
64022;SDS011;50264;52.088;5.296;2022-07-19T00:36:12;24.1;;;7.5;;
64022;SDS011;50264;52.088;5.296;2022-07-19T00:38:02;15.9;;;6.6;;
64022;SDS011;50264;52.088;5.296;2022-07-19T00:39:50;20.2;;;6.3;;
64022;SDS011;50264;52.088;5.296;2022-07-19T00:41:38;13.7;;;5.7;;
64022;SDS011;50264;52.088;5.296;2022-07-19T00:43:25;7.3;;;5.2;;
64022;SDS011;50264;52.088;5.296;2022-07-19T00:45:11;6.4;;;4.7;;
64022;SDS011;50264;52.088;5.296;2022-07-19T00:48:47;10.4;;;5.4;;
64022;SDS011;50264;52.088;5.296;2022-07-19T00:50:34;10.8;;;5.8;;
64022;SDS011;50264;52.088;5.296;2022-07-19T00:52:22;10.5;;;5.5;;
64022;SDS011;50264;52.088;5.296;2022-07-19T00:54:13;12.2;;;5.9;;
64022;SDS011;50264;52.088;5.296;2022-07-19T00:56:03;12.6;;;5.6;;
64022;SDS011;50264;52.088;5.296;2022-07-19T00:57:51;12.0;;;5.5;;
64022;SDS011;50264;52.088;5.296;2022-07-19T01:01:30;9.1;;;5.8;;
64022;SDS011;50264;52.088;5.296;2022-07-19T01:03:17;13.2;;;6.4;;
64022;SDS011;50264;52.088;5.296;2022-07-19T01:05:04;13.2;;;5.4;;
64022;SDS011;50264;52.088;5.296;2022-07-19T01:06:53;9.71;;;5.5;;
64022;SDS011;50264;52.088;5.296;2022-07-19T01:08:40;12.4;;;5.5;;
64022;SDS011;50264;52.088;5.296;2022-07-19T01:10:27;14.0;;;6.0;;
64022;SDS011;50264;52.088;5.296;2022-07-19T01:14:01;15.1;;;5.8;;
64022;SDS011;50264;52.088;5.296;2022-07-19T01:15:48;11.1;;;5.9;;
64022;SDS011;50264;52.088;5.296;2022-07-19T01:17:34;16.0;;;6.4;;
64022;SDS011;50264;52.088;5.296;2022-07-19T01:19:20;13.5;;;5.9;;
64022;SDS011;50264;52.088;5.296;2022-07-19T01:21:06;8.1;;;4.8;;
64022;SDS011;50264;52.088;5.296;2022-07-19T01:22:53;16.61;;;5.9;;
64022;SDS011;50264;52.088;5.296;2022-07-19T01:26:28;8.71;;;5.2;;
64022;SDS011;50264;52.088;5.296;2022-07-19T01:28:15;14.5;;;5.2;;
64022;SDS011;50264;52.088;5.296;2022-07-19T01:30:02;7.3;;;5.2;;
64022;SDS011;50264;52.088;5.296;2022-07-19T01:31:55;11.4;;;4.7;;
64022;SDS011;50264;52.088;5.296;2022-07-19T01:33:41;7.4;;;4.8;;
64022;SDS011;50264;52.088;5.296;2022-07-19T01:35:30;9.81;;;5.11;;
64022;SDS011;50264;52.088;5.296;2022-07-19T01:39:04;9.31;;;5.3;;
64022;SDS011;50264;52.088;5.296;2022-07-19T01:40:50;6.7;;;4.7;;
64022;SDS011;50264;52.088;5.296;2022-07-19T01:42:36;8.1;;;4.61;;
64022;SDS011;50264;52.088;5.296;2022-07-19T01:44:23;5.6;;;4.5;;
64022;SDS011;50264;52.088;5.296;2022-07-19T01:46:09;8.2;;;4.7;;
64022;SDS011;50264;52.088;5.296;2022-07-19T01:47:55;9.1;;;4.7;;
64022;SDS011;50264;52.088;5.296;2022-07-19T01:51:27;7.7;;;4.7;;
64022;SDS011;50264;52.088;5.296;2022-07-19T01:53:15;14.4;;;4.41;;
64022;SDS011;50264;52.088;5.296;2022-07-19T01:55:02;7.5;;;4.7;;
64022;SDS011;50264;52.088;5.296;2022-07-19T01:56:49;7.9;;;4.8;;
64022;SDS011;50264;52.088;5.296;2022-07-19T01:58:35;8.5;;;4.2;;
64022;SDS011;50264;52.088;5.296;2022-07-19T02:02:09;8.2;;;5.0;;
64022;SDS011;50264;52.088;5.296;2022-07-19T02:03:55;6.2;;;4.5;;
64022;SDS011;50264;52.088;5.296;2022-07-19T02:05:42;6.5;;;4.7;;
64022;SDS011;50264;52.088;5.296;2022-07-19T02:07:28;6.4;;;4.8;;
64022;SDS011;50264;52.088;5.296;2022-07-19T02:09:14;9.4;;;4.8;;
64022;SDS011;50264;52.088;5.296;2022-07-19T02:11:34;5.0;;;4.5;;
64022;SDS011;50264;52.088;5.296;2022-07-19T02:13:21;6.2;;;4.41;;
64022;SDS011;50264;52.088;5.296;2022-07-19T02:15:08;8.1;;;5.3;;
64022;SDS011;50264;52.088;5.296;2022-07-19T02:18:42;10.9;;;4.7;;
64022;SDS011;50264;52.088;5.296;2022-07-19T02:20:28;7.5;;;4.8;;
64022;SDS011;50264;52.088;5.296;2022-07-19T02:22:15;7.6;;;4.3;;
64022;SDS011;50264;52.088;5.296;2022-07-19T02:24:03;12.4;;;4.7;;
64022;SDS011;50264;52.088;5.296;2022-07-19T02:25:50;6.5;;;4.7;;
64022;SDS011;50264;52.088;5.296;2022-07-19T02:27:36;5.7;;;4.61;;
64022;SDS011;50264;52.088;5.296;2022-07-19T02:31:10;8.2;;;5.11;;
64022;SDS011;50264;52.088;5.296;2022-07-19T02:32:56;9.4;;;4.8;;
64022;SDS011;50264;52.088;5.296;2022-07-19T02:34:42;11.0;;;4.61;;
64022;SDS011;50264;52.088;5.296;2022-07-19T02:36:29;6.3;;;4.61;;
64022;SDS011;50264;52.088;5.296;2022-07-19T02:38:15;7.6;;;4.5;;
64022;SDS011;50264;52.088;5.296;2022-07-19T02:41:49;6.6;;;5.2;;
64022;SDS011;50264;52.088;5.296;2022-07-19T02:43:36;5.7;;;4.5;;
64022;SDS011;50264;52.088;5.296;2022-07-19T02:45:23;7.2;;;4.91;;
64022;SDS011;50264;52.088;5.296;2022-07-19T02:47:09;7.7;;;5.2;;
64022;SDS011;50264;52.088;5.296;2022-07-19T02:48:55;8.81;;;5.0;;
64022;SDS011;50264;52.088;5.296;2022-07-19T02:50:41;10.4;;;5.0;;
64022;SDS011;50264;52.088;5.296;2022-07-19T02:54:15;6.4;;;4.61;;
64022;SDS011;50264;52.088;5.296;2022-07-19T02:56:03;8.6;;;4.8;;
64022;SDS011;50264;52.088;5.296;2022-07-19T02:57:50;7.1;;;4.91;;
64022;SDS011;50264;52.088;5.296;2022-07-19T02:59:36;5.3;;;4.3;;
64022;SDS011;50264;52.088;5.296;2022-07-19T03:01:22;7.2;;;4.3;;
64022;SDS011;50264;52.088;5.296;2022-07-19T03:05:59;11.3;;;4.5;;
64022;SDS011;50264;52.088;5.296;2022-07-19T03:07:46;8.71;;;4.8;;
64022;SDS011;50264;52.088;5.296;2022-07-19T03:09:32;6.9;;;4.41;;
64022;SDS011;50264;52.088;5.296;2022-07-19T03:13:06;6.2;;;4.8;;
64022;SDS011;50264;52.088;5.296;2022-07-19T03:14:53;5.9;;;4.5;;
64022;SDS011;50264;52.088;5.296;2022-07-19T03:16:40;7.8;;;4.8;;
64022;SDS011;50264;52.088;5.296;2022-07-19T03:18:26;7.0;;;4.41;;
64022;SDS011;50264;52.088;5.296;2022-07-19T03:20:12;6.8;;;4.91;;
64022;SDS011;50264;52.088;5.296;2022-07-19T03:23:45;5.8;;;4.61;;
64022;SDS011;50264;52.088;5.296;2022-07-19T03:25:31;6.3;;;4.5;;
64022;SDS011;50264;52.088;5.296;2022-07-19T03:27:18;6.5;;;4.41;;
64022;SDS011;50264;52.088;5.296;2022-07-19T03:29:04;8.71;;;5.3;;
64022;SDS011;50264;52.088;5.296;2022-07-19T03:30:50;6.7;;;4.8;;
64022;SDS011;50264;52.088;5.296;2022-07-19T03:32:37;7.5;;;4.8;;
64022;SDS011;50264;52.088;5.296;2022-07-19T03:36:12;7.5;;;5.2;;
64022;SDS011;50264;52.088;5.296;2022-07-19T03:37:58;9.21;;;4.7;;
64022;SDS011;50264;52.088;5.296;2022-07-19T03:39:44;6.8;;;4.3;;
64022;SDS011;50264;52.088;5.296;2022-07-19T03:41:31;6.2;;;4.61;;
64022;SDS011;50264;52.088;5.296;2022-07-19T03:43:17;6.7;;;5.3;;
64022;SDS011;50264;52.088;5.296;2022-07-19T03:45:06;9.6;;;4.61;;
64022;SDS011;50264;52.088;5.296;2022-07-19T03:48:40;8.2;;;4.61;;
64022;SDS011;50264;52.088;5.296;2022-07-19T03:50:26;6.5;;;5.4;;
64022;SDS011;50264;52.088;5.296;2022-07-19T03:52:13;8.1;;;4.7;;
64022;SDS011;50264;52.088;5.296;2022-07-19T03:54:00;7.0;;;4.61;;
64022;SDS011;50264;52.088;5.296;2022-07-19T03:55:46;8.5;;;4.91;;
64022;SDS011;50264;52.088;5.296;2022-07-19T03:59:18;7.4;;;4.91;;
64022;SDS011;50264;52.088;5.296;2022-07-19T04:01:06;11.2;;;5.8;;
64022;SDS011;50264;52.088;5.296;2022-07-19T04:02:53;9.0;;;5.3;;
64022;SDS011;50264;52.088;5.296;2022-07-19T04:04:39;13.9;;;5.11;;
64022;SDS011;50264;52.088;5.296;2022-07-19T04:06:25;9.1;;;4.91;;
64022;SDS011;50264;52.088;5.296;2022-07-19T04:08:11;7.8;;;4.7;;
64022;SDS011;50264;52.088;5.296;2022-07-19T04:11:45;8.4;;;4.8;;
64022;SDS011;50264;52.088;5.296;2022-07-19T04:13:32;9.0;;;5.4;;
64022;SDS011;50264;52.088;5.296;2022-07-19T04:15:20;7.9;;;4.8;;
64022;SDS011;50264;52.088;5.296;2022-07-19T04:17:07;12.7;;;5.7;;
64022;SDS011;50264;52.088;5.296;2022-07-19T04:18:54;7.3;;;5.3;;
64022;SDS011;50264;52.088;5.296;2022-07-19T04:20:40;7.8;;;5.11;;
64022;SDS011;50264;52.088;5.296;2022-07-19T04:24:16;8.4;;;5.3;;
64022;SDS011;50264;52.088;5.296;2022-07-19T04:26:03;8.2;;;5.0;;
64022;SDS011;50264;52.088;5.296;2022-07-19T04:27:50;10.0;;;6.0;;
64022;SDS011;50264;52.088;5.296;2022-07-19T04:29:36;7.3;;;4.7;;
64022;SDS011;50264;52.088;5.296;2022-07-19T04:31:22;7.3;;;5.11;;
64022;SDS011;50264;52.088;5.296;2022-07-19T04:33:08;7.5;;;4.91;;
64022;SDS011;50264;52.088;5.296;2022-07-19T04:36:41;8.2;;;5.5;;
64022;SDS011;50264;52.088;5.296;2022-07-19T04:38:27;10.3;;;5.2;;
64022;SDS011;50264;52.088;5.296;2022-07-19T04:40:14;8.1;;;5.0;;
64022;SDS011;50264;52.088;5.296;2022-07-19T04:42:00;11.2;;;5.4;;
64022;SDS011;50264;52.088;5.296;2022-07-19T04:43:48;7.3;;;5.2;;
64022;SDS011;50264;52.088;5.296;2022-07-19T04:47:20;11.7;;;5.0;;
64022;SDS011;50264;52.088;5.296;2022-07-19T04:49:06;11.4;;;5.0;;
64022;SDS011;50264;52.088;5.296;2022-07-19T04:50:52;7.7;;;4.5;;
64022;SDS011;50264;52.088;5.296;2022-07-19T04:52:39;10.21;;;5.3;;
64022;SDS011;50264;52.088;5.296;2022-07-19T04:54:26;9.0;;;4.91;;
64022;SDS011;50264;52.088;5.296;2022-07-19T04:56:13;9.0;;;4.91;;
64022;SDS011;50264;52.088;5.296;2022-07-19T04:59:45;7.8;;;4.8;;
64022;SDS011;50264;52.088;5.296;2022-07-19T05:01:31;9.6;;;4.91;;
64022;SDS011;50264;52.088;5.296;2022-07-19T05:03:17;7.0;;;4.8;;
64022;SDS011;50264;52.088;5.296;2022-07-19T05:05:04;10.1;;;4.8;;
64022;SDS011;50264;52.088;5.296;2022-07-19T05:06:56;5.9;;;4.5;;
64022;SDS011;50264;52.088;5.296;2022-07-19T05:08:43;8.5;;;4.7;;
64022;SDS011;50264;52.088;5.296;2022-07-19T05:12:15;6.9;;;4.2;;
64022;SDS011;50264;52.088;5.296;2022-07-19T05:14:02;10.5;;;5.0;;
64022;SDS011;50264;52.088;5.296;2022-07-19T05:15:49;8.4;;;5.4;;
64022;SDS011;50264;52.088;5.296;2022-07-19T05:17:35;7.8;;;5.0;;
64022;SDS011;50264;52.088;5.296;2022-07-19T05:19:22;12.3;;;5.4;;
64022;SDS011;50264;52.088;5.296;2022-07-19T05:22:56;8.4;;;4.8;;
64022;SDS011;50264;52.088;5.296;2022-07-19T05:24:42;13.2;;;5.0;;
64022;SDS011;50264;52.088;5.296;2022-07-19T05:26:29;14.3;;;4.7;;
64022;SDS011;50264;52.088;5.296;2022-07-19T05:28:16;12.7;;;4.8;;
64022;SDS011;50264;52.088;5.296;2022-07-19T05:30:02;8.71;;;4.5;;
64022;SDS011;50264;52.088;5.296;2022-07-19T05:31:49;7.3;;;4.2;;
64022;SDS011;50264;52.088;5.296;2022-07-19T05:35:22;7.1;;;4.0;;
64022;SDS011;50264;52.088;5.296;2022-07-19T05:37:09;6.8;;;4.5;;
64022;SDS011;50264;52.088;5.296;2022-07-19T05:38:56;8.81;;;4.41;;
64022;SDS011;50264;52.088;5.296;2022-07-19T05:40:42;5.7;;;4.5;;
64022;SDS011;50264;52.088;5.296;2022-07-19T05:42:30;4.3;;;3.9;;
64022;SDS011;50264;52.088;5.296;2022-07-19T05:44:16;6.0;;;4.3;;
64022;SDS011;50264;52.088;5.296;2022-07-19T05:47:49;4.7;;;4.3;;
64022;SDS011;50264;52.088;5.296;2022-07-19T05:49:35;4.5;;;4.1;;
64022;SDS011;50264;52.088;5.296;2022-07-19T05:51:21;4.7;;;4.2;;
64022;SDS011;50264;52.088;5.296;2022-07-19T05:53:08;5.5;;;4.0;;
64022;SDS011;50264;52.088;5.296;2022-07-19T05:54:55;4.7;;;4.2;;
64022;SDS011;50264;52.088;5.296;2022-07-19T05:58:27;4.0;;;3.6;;
64022;SDS011;50264;52.088;5.296;2022-07-19T06:00:14;4.61;;;4.2;;
64022;SDS011;50264;52.088;5.296;2022-07-19T06:02:00;7.9;;;3.7;;
64022;SDS011;50264;52.088;5.296;2022-07-19T06:03:48;7.3;;;4.0;;
64022;SDS011;50264;52.088;5.296;2022-07-19T06:05:37;6.5;;;4.5;;
64022;SDS011;50264;52.088;5.296;2022-07-19T06:07:23;8.71;;;4.61;;
64022;SDS011;50264;52.088;5.296;2022-07-19T06:10:58;15.5;;;4.91;;
64022;SDS011;50264;52.088;5.296;2022-07-19T06:12:44;8.5;;;5.0;;
64022;SDS011;50264;52.088;5.296;2022-07-19T06:14:30;10.8;;;5.6;;
64022;SDS011;50264;52.088;5.296;2022-07-19T06:16:16;14.5;;;5.3;;
64022;SDS011;50264;52.088;5.296;2022-07-19T06:18:04;13.9;;;5.5;;
64022;SDS011;50264;52.088;5.296;2022-07-19T06:19:50;9.9;;;4.61;;
64022;SDS011;50264;52.088;5.296;2022-07-19T06:23:24;6.2;;;4.41;;
64022;SDS011;50264;52.088;5.296;2022-07-19T06:25:11;8.0;;;4.5;;
64022;SDS011;50264;52.088;5.296;2022-07-19T06:26:57;5.4;;;4.5;;
64022;SDS011;50264;52.088;5.296;2022-07-19T06:28:43;4.1;;;3.6;;
64022;SDS011;50264;52.088;5.296;2022-07-19T06:30:31;3.9;;;3.6;;
64022;SDS011;50264;52.088;5.296;2022-07-19T06:34:03;12.8;;;5.11;;
64022;SDS011;50264;52.088;5.296;2022-07-19T06:35:49;6.1;;;4.61;;
64022;SDS011;50264;52.088;5.296;2022-07-19T06:37:36;8.9;;;4.0;;
64022;SDS011;50264;52.088;5.296;2022-07-19T06:39:23;10.0;;;4.0;;
64022;SDS011;50264;52.088;5.296;2022-07-19T06:41:09;10.4;;;3.8;;
64022;SDS011;50264;52.088;5.296;2022-07-19T06:42:58;4.3;;;3.9;;
64022;SDS011;50264;52.088;5.296;2022-07-19T06:46:30;4.91;;;4.0;;
64022;SDS011;50264;52.088;5.296;2022-07-19T06:48:16;6.5;;;4.0;;
64022;SDS011;50264;52.088;5.296;2022-07-19T06:50:03;4.61;;;4.0;;
64022;SDS011;50264;52.088;5.296;2022-07-19T06:51:50;5.0;;;4.2;;
64022;SDS011;50264;52.088;5.296;2022-07-19T06:53:36;5.5;;;4.1;;
64022;SDS011;50264;52.088;5.296;2022-07-19T06:55:24;5.2;;;3.8;;
64022;SDS011;50264;52.088;5.296;2022-07-19T06:58:58;4.1;;;3.7;;
64022;SDS011;50264;52.088;5.296;2022-07-19T07:00:44;5.6;;;3.7;;
64022;SDS011;50264;52.088;5.296;2022-07-19T07:02:31;14.5;;;3.8;;
64022;SDS011;50264;52.088;5.296;2022-07-19T07:04:18;24.2;;;5.5;;
64022;SDS011;50264;52.088;5.296;2022-07-19T07:06:05;9.21;;;3.6;;
64022;SDS011;50264;52.088;5.296;2022-07-19T07:09:40;7.7;;;3.8;;
64022;SDS011;50264;52.088;5.296;2022-07-19T07:11:27;8.81;;;4.0;;
64022;SDS011;50264;52.088;5.296;2022-07-19T07:13:14;8.4;;;4.0;;
64022;SDS011;50264;52.088;5.296;2022-07-19T07:15:00;4.61;;;3.5;;
64022;SDS011;50264;52.088;5.296;2022-07-19T07:16:47;4.5;;;3.4;;
64022;SDS011;50264;52.088;5.296;2022-07-19T07:18:34;5.5;;;3.6;;
64022;SDS011;50264;52.088;5.296;2022-07-19T07:22:07;4.8;;;3.5;;
64022;SDS011;50264;52.088;5.296;2022-07-19T07:23:53;6.9;;;4.1;;
64022;SDS011;50264;52.088;5.296;2022-07-19T07:25:39;6.0;;;3.7;;
64022;SDS011;50264;52.088;5.296;2022-07-19T07:27:26;4.41;;;3.2;;
64022;SDS011;50264;52.088;5.296;2022-07-19T07:29:12;48.9;;;6.9;;
64022;SDS011;50264;52.088;5.296;2022-07-19T07:30:59;4.0;;;3.5;;
64022;SDS011;50264;52.088;5.296;2022-07-19T07:34:33;7.0;;;3.6;;
64022;SDS011;50264;52.088;5.296;2022-07-19T07:36:19;5.6;;;3.4;;
64022;SDS011;50264;52.088;5.296;2022-07-19T07:38:05;3.2;;;2.9;;
64022;SDS011;50264;52.088;5.296;2022-07-19T07:39:51;8.5;;;3.8;;
64022;SDS011;50264;52.088;5.296;2022-07-19T07:41:37;5.7;;;3.4;;
64022;SDS011;50264;52.088;5.296;2022-07-19T07:45:12;8.81;;;4.41;;
64022;SDS011;50264;52.088;5.296;2022-07-19T07:46:59;7.9;;;3.5;;
64022;SDS011;50264;52.088;5.296;2022-07-19T07:48:45;5.4;;;3.4;;
64022;SDS011;50264;52.088;5.296;2022-07-19T07:50:31;7.0;;;4.1;;
64022;SDS011;50264;52.088;5.296;2022-07-19T07:52:18;9.0;;;3.8;;
64022;SDS011;50264;52.088;5.296;2022-07-19T07:54:04;4.0;;;3.3;;
64022;SDS011;50264;52.088;5.296;2022-07-19T07:57:38;4.8;;;3.8;;
64022;SDS011;50264;52.088;5.296;2022-07-19T07:59:24;10.6;;;4.0;;
64022;SDS011;50264;52.088;5.296;2022-07-19T08:01:10;8.1;;;3.1;;
64022;SDS011;50264;52.088;5.296;2022-07-19T08:02:56;4.1;;;3.0;;
64022;SDS011;50264;52.088;5.296;2022-07-19T08:04:42;5.7;;;3.4;;
64022;SDS011;50264;52.088;5.296;2022-07-19T08:08:14;9.71;;;3.9;;
64022;SDS011;50264;52.088;5.296;2022-07-19T08:10:02;6.1;;;3.5;;
64022;SDS011;50264;52.088;5.296;2022-07-19T08:11:51;5.9;;;3.2;;
64022;SDS011;50264;52.088;5.296;2022-07-19T08:13:37;7.1;;;3.9;;
64022;SDS011;50264;52.088;5.296;2022-07-19T08:15:23;8.9;;;3.9;;
64022;SDS011;50264;52.088;5.296;2022-07-19T08:17:10;9.4;;;3.5;;
64022;SDS011;50264;52.088;5.296;2022-07-19T08:20:43;8.9;;;4.1;;
64022;SDS011;50264;52.088;5.296;2022-07-19T08:22:29;127.8;;;113.7;;
64022;SDS011;50264;52.088;5.296;2022-07-19T08:24:17;5.3;;;4.0;;
64022;SDS011;50264;52.088;5.296;2022-07-19T08:27:49;1999.9;;;230.1;;
64022;SDS011;50264;52.088;5.296;2022-07-19T08:29:35;113.0;;;101.4;;
64022;SDS011;50264;52.088;5.296;2022-07-19T08:33:08;13.9;;;13.0;;
64022;SDS011;50264;52.088;5.296;2022-07-19T08:34:55;7.2;;;4.1;;
64022;SDS011;50264;52.088;5.296;2022-07-19T08:36:41;1999.9;;;517.3;;
64022;SDS011;50264;52.088;5.296;2022-07-19T08:38:28;1999.9;;;656.2;;
64022;SDS011;50264;52.088;5.296;2022-07-19T08:40:14;1676.0;;;245.7;;
64022;SDS011;50264;52.088;5.296;2022-07-19T08:43:49;1999.9;;;536.71;;
64022;SDS011;50264;52.088;5.296;2022-07-19T08:45:37;1312.3;;;154.81;;
64022;SDS011;50264;52.088;5.296;2022-07-19T08:47:26;1999.9;;;999.9;;
64022;SDS011;50264;52.088;5.296;2022-07-19T08:49:15;1999.9;;;405.5;;
64022;SDS011;50264;52.088;5.296;2022-07-19T08:51:04;1999.9;;;414.5;;
64022;SDS011;50264;52.088;5.296;2022-07-19T08:52:52;1038.6;;;208.4;;
64022;SDS011;50264;52.088;5.296;2022-07-19T08:54:38;916.0;;;133.1;;
64022;SDS011;50264;52.088;5.296;2022-07-19T08:59:30;9.9;;;4.61;;
64022;SDS011;50264;52.088;5.296;2022-07-19T09:01:17;237.7;;;44.5;;
64022;SDS011;50264;52.088;5.296;2022-07-19T09:03:05;651.4;;;79.2;;
64022;SDS011;50264;52.088;5.296;2022-07-19T09:06:50;65.0;;;20.9;;
64022;SDS011;50264;52.088;5.296;2022-07-19T09:08:43;49.5;;;15.3;;
64022;SDS011;50264;52.088;5.296;2022-07-19T09:10:31;510.7;;;71.5;;
64022;SDS011;50264;52.088;5.296;2022-07-19T09:12:20;77.8;;;17.91;;
64022;SDS011;50264;52.088;5.296;2022-07-19T09:14:07;508.2;;;70.91;;
64022;SDS011;50264;52.088;5.296;2022-07-19T09:15:55;40.6;;;17.3;;
64022;SDS011;50264;52.088;5.296;2022-07-19T09:17:41;9.21;;;8.4;;
64022;SDS011;50264;52.088;5.296;2022-07-19T09:21:17;11.2;;;5.4;;
64022;SDS011;50264;52.088;5.296;2022-07-19T09:23:04;23.4;;;6.6;;
64022;SDS011;50264;52.088;5.296;2022-07-19T09:24:53;6.5;;;4.0;;
64022;SDS011;50264;52.088;5.296;2022-07-19T09:26:45;4.5;;;4.2;;
64022;SDS011;50264;52.088;5.296;2022-07-19T09:28:40;7.9;;;4.61;;
64022;SDS011;50264;52.088;5.296;2022-07-19T09:30:35;8.4;;;4.91;;
64022;SDS011;50264;52.088;5.296;2022-07-19T09:32:25;10.3;;;5.3;;
64022;SDS011;50264;52.088;5.296;2022-07-19T09:36:00;8.9;;;6.5;;
64022;SDS011;50264;52.088;5.296;2022-07-19T09:37:48;22.4;;;6.7;;
64022;SDS011;50264;52.088;5.296;2022-07-19T09:39:34;26.4;;;7.4;;
64022;SDS011;50264;52.088;5.296;2022-07-19T09:41:21;26.2;;;5.8;;
64022;SDS011;50264;52.088;5.296;2022-07-19T09:43:07;10.9;;;5.2;;
64022;SDS011;50264;52.088;5.296;2022-07-19T09:44:57;33.71;;;11.1;;
64022;SDS011;50264;52.088;5.296;2022-07-19T09:48:41;37.21;;;11.8;;
64022;SDS011;50264;52.088;5.296;2022-07-19T09:50:29;5.8;;;4.7;;
64022;SDS011;50264;52.088;5.296;2022-07-19T09:52:17;9.71;;;4.7;;
64022;SDS011;50264;52.088;5.296;2022-07-19T09:54:05;14.2;;;4.8;;
64022;SDS011;50264;52.088;5.296;2022-07-19T09:55:54;27.2;;;7.6;;
64022;SDS011;50264;52.088;5.296;2022-07-19T09:57:42;7.4;;;5.11;;
64022;SDS011;50264;52.088;5.296;2022-07-19T09:59:31;53.8;;;7.6;;
64022;SDS011;50264;52.088;5.296;2022-07-19T10:03:07;18.11;;;4.3;;
64022;SDS011;50264;52.088;5.296;2022-07-19T10:04:56;8.81;;;4.5;;
64022;SDS011;50264;52.088;5.296;2022-07-19T10:06:45;57.8;;;8.81;;
64022;SDS011;50264;52.088;5.296;2022-07-19T10:08:33;35.1;;;6.0;;
64022;SDS011;50264;52.088;5.296;2022-07-19T10:10:20;43.9;;;8.5;;
64022;SDS011;50264;52.088;5.296;2022-07-19T10:12:08;62.0;;;12.3;;
64022;SDS011;50264;52.088;5.296;2022-07-19T10:15:44;67.1;;;15.7;;
64022;SDS011;50264;52.088;5.296;2022-07-19T10:17:36;150.5;;;29.9;;
64022;SDS011;50264;52.088;5.296;2022-07-19T10:19:30;144.1;;;25.2;;
64022;SDS011;50264;52.088;5.296;2022-07-19T10:21:22;244.4;;;36.9;;
64022;SDS011;50264;52.088;5.296;2022-07-19T10:23:09;250.5;;;39.4;;
64022;SDS011;50264;52.088;5.296;2022-07-19T10:24:56;461.3;;;55.5;;
64022;SDS011;50264;52.088;5.296;2022-07-19T10:26:45;676.3;;;75.8;;
64022;SDS011;50264;52.088;5.296;2022-07-19T10:30:22;712.2;;;75.7;;
64022;SDS011;50264;52.088;5.296;2022-07-19T10:32:11;926.6;;;90.4;;
64022;SDS011;50264;52.088;5.296;2022-07-19T10:34:00;1431.6;;;140.4;;
64022;SDS011;50264;52.088;5.296;2022-07-19T10:35:48;1168.91;;;103.2;;
64022;SDS011;50264;52.088;5.296;2022-07-19T10:37:42;1608.4;;;145.5;;
64022;SDS011;50264;52.088;5.296;2022-07-19T10:39:34;1284.7;;;122.5;;
64022;SDS011;50264;52.088;5.296;2022-07-19T10:41:25;1999.9;;;182.7;;
64022;SDS011;50264;52.088;5.296;2022-07-19T10:45:15;1625.0;;;152.81;;
64022;SDS011;50264;52.088;5.296;2022-07-19T10:47:02;1898.2;;;161.71;;
64022;SDS011;50264;52.088;5.296;2022-07-19T10:48:49;1626.2;;;155.31;;
64022;SDS011;50264;52.088;5.296;2022-07-19T10:50:53;1971.8;;;175.8;;
64022;SDS011;50264;52.088;5.296;2022-07-19T10:52:56;1999.9;;;224.7;;
64022;SDS011;50264;52.088;5.296;2022-07-19T10:54:43;1999.9;;;271.11;;
64022;SDS011;50264;52.088;5.296;2022-07-19T10:56:33;1999.9;;;185.5;;
64022;SDS011;50264;52.088;5.296;2022-07-19T10:58:21;1999.9;;;185.5;;
64022;SDS011;50264;52.088;5.296;2022-07-19T11:00:15;1999.9;;;195.0;;
64022;SDS011;50264;52.088;5.296;2022-07-19T11:03:51;1999.9;;;204.5;;
64022;SDS011;50264;52.088;5.296;2022-07-19T11:05:45;1999.9;;;275.0;;
64022;SDS011;50264;52.088;5.296;2022-07-19T11:07:34;1999.9;;;271.61;;
64022;SDS011;50264;52.088;5.296;2022-07-19T11:09:21;1999.9;;;321.2;;
64022;SDS011;50264;52.088;5.296;2022-07-19T11:11:08;1999.9;;;266.0;;
64022;SDS011;50264;52.088;5.296;2022-07-19T11:12:57;1999.9;;;267.8;;
64022;SDS011;50264;52.088;5.296;2022-07-19T11:16:30;1999.9;;;267.7;;
64022;SDS011;50264;52.088;5.296;2022-07-19T11:18:18;1999.9;;;325.61;;
64022;SDS011;50264;52.088;5.296;2022-07-19T11:20:07;1999.9;;;307.5;;
64022;SDS011;50264;52.088;5.296;2022-07-19T11:21:56;1999.9;;;285.5;;
64022;SDS011;50264;52.088;5.296;2022-07-19T11:23:47;1999.9;;;299.2;;
64022;SDS011;50264;52.088;5.296;2022-07-19T11:25:34;1999.9;;;336.5;;
64022;SDS011;50264;52.088;5.296;2022-07-19T11:27:22;1999.9;;;299.2;;
64022;SDS011;50264;52.088;5.296;2022-07-19T11:30:57;1999.9;;;281.11;;
64022;SDS011;50264;52.088;5.296;2022-07-19T11:32:50;1999.9;;;276.0;;
64022;SDS011;50264;52.088;5.296;2022-07-19T11:34:38;1999.9;;;297.3;;
64022;SDS011;50264;52.088;5.296;2022-07-19T11:36:24;1999.9;;;291.91;;
64022;SDS011;50264;52.088;5.296;2022-07-19T11:38:12;1999.9;;;303.61;;
64022;SDS011;50264;52.088;5.296;2022-07-19T11:39:59;1999.9;;;296.2;;
64022;SDS011;50264;52.088;5.296;2022-07-19T11:43:35;1999.9;;;340.3;;
64022;SDS011;50264;52.088;5.296;2022-07-19T11:45:22;1999.9;;;285.41;;
64022;SDS011;50264;52.088;5.296;2022-07-19T11:47:11;1999.9;;;333.1;;
64022;SDS011;50264;52.088;5.296;2022-07-19T11:48:58;1999.9;;;315.61;;
64022;SDS011;50264;52.088;5.296;2022-07-19T11:50:45;1999.9;;;349.7;;
64022;SDS011;50264;52.088;5.296;2022-07-19T11:52:40;1999.9;;;333.4;;
64022;SDS011;50264;52.088;5.296;2022-07-19T11:54:38;1999.9;;;352.5;;
64022;SDS011;50264;52.088;5.296;2022-07-19T11:58:13;1999.9;;;315.91;;
64022;SDS011;50264;52.088;5.296;2022-07-19T12:00:00;1999.9;;;343.3;;
64022;SDS011;50264;52.088;5.296;2022-07-19T12:01:47;1999.9;;;361.8;;
64022;SDS011;50264;52.088;5.296;2022-07-19T12:03:34;1999.9;;;315.3;;
64022;SDS011;50264;52.088;5.296;2022-07-19T12:05:21;1999.9;;;333.6;;
64022;SDS011;50264;52.088;5.296;2022-07-19T12:07:08;1999.9;;;346.2;;
64022;SDS011;50264;52.088;5.296;2022-07-19T12:10:50;1999.9;;;344.1;;
64022;SDS011;50264;52.088;5.296;2022-07-19T12:12:39;1999.9;;;366.8;;
64022;SDS011;50264;52.088;5.296;2022-07-19T12:14:27;1999.9;;;347.5;;
64022;SDS011;50264;52.088;5.296;2022-07-19T12:16:17;1999.9;;;352.4;;
64022;SDS011;50264;52.088;5.296;2022-07-19T12:18:04;1999.9;;;315.3;;
64022;SDS011;50264;52.088;5.296;2022-07-19T12:20:06;1999.9;;;333.9;;
64022;SDS011;50264;52.088;5.296;2022-07-19T12:21:53;1999.9;;;348.8;;
64022;SDS011;50264;52.088;5.296;2022-07-19T12:25:35;1999.9;;;380.2;;
64022;SDS011;50264;52.088;5.296;2022-07-19T12:27:27;1999.9;;;358.8;;
64022;SDS011;50264;52.088;5.296;2022-07-19T12:29:16;1999.9;;;351.3;;
64022;SDS011;50264;52.088;5.296;2022-07-19T12:31:05;1999.9;;;369.9;;
64022;SDS011;50264;52.088;5.296;2022-07-19T12:32:52;1999.9;;;340.9;;
64022;SDS011;50264;52.088;5.296;2022-07-19T12:34:41;1999.9;;;350.0;;
64022;SDS011;50264;52.088;5.296;2022-07-19T12:36:32;1999.9;;;328.0;;
64022;SDS011;50264;52.088;5.296;2022-07-19T12:40:18;1999.9;;;355.1;;
64022;SDS011;50264;52.088;5.296;2022-07-19T12:42:06;1999.9;;;348.5;;
64022;SDS011;50264;52.088;5.296;2022-07-19T12:43:53;1999.9;;;374.6;;
64022;SDS011;50264;52.088;5.296;2022-07-19T12:45:41;1999.9;;;353.4;;